Time;durP1;ratioP1;P1;durP2;ratioP2;P2;SDS_P1;SDS_P2;PMS_P1;PMS_P2;Temp;Humidity;BMP_temperature;BMP_pressure;BME280_temperature;BME280_humidity;BME280_pressure;Samples;Min_cycle;Max_cycle;Signal;HPM_P1;HPM_P2
2022/06/03 00:02:50;;;;;;;1.88;1.48;;;;;;;29.02;38.14;100229.03;5048755;28;20053;-78
2022/06/03 00:05:56;;;;;;;4.43;1.60;;;;;;;29.13;37.58;100230.25;5024968;28;20049;-79
2022/06/03 00:09:06;;;;;;;1.73;1.40;;;;;;;29.23;37.44;100227.00;5040179;28;20045;-77
2022/06/03 00:11:54;;;;;;;5.03;1.50;;;;;;;29.24;36.25;100228.69;5016312;28;20045;-78
2022/06/03 00:14:53;;;;;;;6.55;1.70;;;;;;;29.16;37.44;100230.94;5050707;28;20048;-78
2022/06/03 00:17:41;;;;;;;3.17;1.50;;;;;;;29.20;37.39;100224.47;5032306;28;20046;-78
2022/06/03 00:20:20;;;;;;;2.72;1.40;;;;;;;29.17;36.80;100221.13;5050182;28;20049;-79
2022/06/03 00:23:18;;;;;;;3.40;1.35;;;;;;;29.11;36.49;100218.81;5046802;28;20061;-78
2022/06/03 00:26:08;;;;;;;1.90;1.20;;;;;;;29.13;36.67;100217.78;5045343;28;20041;-78
2022/06/03 00:29:08;;;;;;;2.60;1.45;;;;;;;28.71;37.02;100213.03;5041924;28;20052;-78
2022/06/03 00:31:55;;;;;;;7.25;1.60;;;;;;;28.27;38.19;100218.91;5045544;28;20049;-79
2022/06/03 00:34:46;;;;;;;2.25;1.60;;;;;;;27.99;37.88;100204.34;5038529;28;20041;-79
2022/06/03 00:37:28;;;;;;;2.58;1.40;;;;;;;27.91;38.35;100202.09;5046770;28;20048;-79
2022/06/03 00:40:08;;;;;;;2.10;1.45;;;;;;;27.76;40.79;100206.38;5063814;28;20387;-79
2022/06/03 00:43:06;;;;;;;3.47;1.80;;;;;;;27.65;40.94;100214.03;5063884;28;20045;-78
2022/06/03 00:45:59;;;;;;;8.25;3.22;;;;;;;27.52;41.53;100200.47;5079115;28;20067;-78
2022/06/03 00:48:42;;;;;;;4.25;1.58;;;;;;;27.33;41.87;100205.84;5082293;28;20489;-78
2022/06/03 00:51:44;;;;;;;6.07;1.70;;;;;;;27.17;41.50;100196.88;5085301;28;20036;-79
2022/06/03 00:54:38;;;;;;;4.00;1.67;;;;;;;27.08;41.88;100205.28;5076111;28;20044;-78
2022/06/03 00:57:57;;;;;;;8.30;1.60;;;;;;;26.88;41.97;100203.56;5088321;28;20497;-79
2022/06/03 01:00:31;;;;;;;3.88;1.30;;;;;;;26.77;41.59;100200.56;4990069;28;20050;-78
2022/06/03 01:03:31;;;;;;;3.03;1.55;;;;;;;26.70;41.88;100194.66;4988423;28;20097;-78
2022/06/03 01:06:23;;;;;;;2.13;1.40;;;;;;;26.62;41.55;100195.03;5031293;28;20545;-79
2022/06/03 01:09:12;;;;;;;3.72;1.30;;;;;;;26.54;40.45;100200.69;5084641;28;20070;-78
2022/06/03 01:12:10;;;;;;;2.00;1.08;;;;;;;26.50;40.63;100199.09;5089542;28;20056;-79
2022/06/03 01:15:15;;;;;;;5.75;1.10;;;;;;;26.46;40.41;100199.28;5084871;28;20059;-79
2022/06/03 01:17:57;;;;;;;1.73;0.95;;;;;;;26.40;40.18;100197.75;5080355;28;20537;-80
2022/06/03 01:20:37;;;;;;;2.03;0.80;;;;;;;26.33;38.86;100199.81;5084870;28;20584;-79
2022/06/03 01:23:33;;;;;;;4.55;0.95;;;;;;;26.25;38.06;100201.09;5072700;28;20040;-79
2022/06/03 01:26:23;;;;;;;1.42;0.98;;;;;;;26.18;38.34;100192.53;5069845;28;20048;-79
2022/06/03 01:29:39;;;;;;;1.70;0.85;;;;;;;26.11;37.40;100196.41;5078028;28;20043;-79
2022/06/03 01:32:41;;;;;;;2.38;0.90;;;;;;;26.07;37.57;100187.72;5035437;28;20050;-78
2022/06/03 01:35:48;;;;;;;2.63;1.00;;;;;;;26.04;37.93;100194.94;5070724;28;20047;-77
2022/06/03 01:38:32;;;;;;;1.00;0.80;;;;;;;25.94;38.16;100181.25;5066257;28;20413;-76
2022/06/03 01:41:21;;;;;;;3.30;0.73;;;;;;;25.90;39.48;100195.53;5081977;28;20048;-78
2022/06/03 01:44:18;;;;;;;1.88;0.90;;;;;;;25.82;38.72;100201.16;5073592;28;20493;-76
2022/06/03 01:47:17;;;;;;;2.75;1.40;;;;;;;25.72;39.57;100199.81;5071159;28;20037;-78
2022/06/03 01:50:10;;;;;;;5.22;1.10;;;;;;;25.64;39.91;100218.69;5073575;28;20070;-76
2022/06/03 01:53:20;;;;;;;2.53;0.90;;;;;;;25.53;40.84;100215.59;5085349;28;20054;-77
2022/06/03 01:56:20;;;;;;;3.88;0.98;;;;;;;25.47;41.17;100214.09;5087310;28;20467;-78
2022/06/03 01:59:22;;;;;;;1.13;0.82;;;;;;;25.42;41.20;100217.81;5088505;28;20051;-77
2022/06/03 02:02:29;;;;;;;1.73;1.10;;;;;;;25.40;42.26;100223.19;5070470;28;20052;-76
2022/06/03 02:05:35;;;;;;;2.15;0.90;;;;;;;25.37;42.59;100222.47;5070197;28;20059;-78
2022/06/03 02:08:43;;;;;;;2.47;0.90;;;;;;;25.31;42.89;100225.34;5007312;28;20038;-78
2022/06/03 02:11:46;;;;;;;1.33;0.98;;;;;;;25.26;43.29;100223.72;5051448;28;20056;-77
2022/06/03 02:14:45;;;;;;;1.48;0.88;;;;;;;25.19;43.19;100218.75;5074729;28;20408;-78
2022/06/03 02:17:41;;;;;;;2.58;0.98;;;;;;;25.11;44.07;100218.19;5075312;28;20482;-77
2022/06/03 02:21:05;;;;;;;5.22;1.30;;;;;;;25.06;44.03;100223.66;5080194;28;20056;-79
2022/06/03 02:24:08;;;;;;;1.92;1.10;;;;;;;24.97;44.07;100219.56;5005982;28;20073;-79
2022/06/03 02:27:04;;;;;;;1.73;0.98;;;;;;;24.87;44.14;100221.69;5078908;28;20044;-79
2022/06/03 02:33:30;;;;;;;3.40;1.05;;;;;;;24.67;44.96;100214.53;5081161;28;20101;-80
2022/06/03 02:36:46;;;;;;;4.32;0.90;;;;;;;24.60;45.17;100214.78;5075112;28;20048;-79
2022/06/03 02:40:08;;;;;;;3.05;1.10;;;;;;;24.46;45.29;100218.81;5042262;28;20455;-78
2022/06/03 02:43:02;;;;;;;2.00;1.02;;;;;;;24.38;46.41;100217.34;5061458;28;20406;-78
2022/06/03 02:46:32;;;;;;;2.20;0.90;;;;;;;24.24;45.95;100216.06;5069788;28;20045;-78
2022/06/03 02:49:32;;;;;;;4.22;0.90;;;;;;;24.13;46.18;100215.56;4980666;28;20050;-79
2022/06/03 02:52:45;;;;;;;4.65;1.00;;;;;;;24.04;46.95;100214.09;5065048;28;20053;-79
2022/06/03 02:56:00;;;;;;;2.30;0.85;;;;;;;23.91;46.97;100204.00;5065228;28;20500;-78
2022/06/03 02:59:06;;;;;;;2.70;1.08;;;;;;;23.93;46.63;100221.53;5000593;28;20053;-78
2022/06/03 03:01:59;;;;;;;1.23;0.98;;;;;;;23.88;47.31;100223.47;5071636;28;20044;-79
2022/06/03 03:05:08;;;;;;;0.90;0.68;;;;;;;23.81;47.22;100224.59;5068357;28;20044;-80
2022/06/03 03:07:50;;;;;;;3.05;1.08;;;;;;;23.70;47.54;100224.06;5069301;28;20512;-81
2022/06/03 03:10:31;;;;;;;2.73;1.70;;;;;;;23.63;47.90;100226.91;5070989;28;20048;-80
2022/06/03 03:13:25;;;;;;;2.25;0.90;;;;;;;23.49;47.92;100218.56;5069472;28;20051;-79
2022/06/03 03:16:48;;;;;;;2.75;0.73;;;;;;;23.41;49.32;100220.63;5065211;28;20053;-78
2022/06/03 03:19:42;;;;;;;1.50;0.80;;;;;;;23.34;50.53;100219.94;5066194;28;20056;-78
2022/06/03 03:22:32;;;;;;;2.33;1.10;;;;;;;23.29;51.30;100219.19;5064938;28;20063;-78
2022/06/03 03:25:46;;;;;;;2.45;0.90;;;;;;;23.20;50.06;100222.13;5065707;28;20043;-79
2022/06/03 03:28:38;;;;;;;4.03;1.10;;;;;;;23.17;50.59;100217.81;5030890;28;20425;-79
2022/06/03 03:31:29;;;;;;;1.23;0.80;;;;;;;23.16;49.47;100218.75;5070828;28;20502;-78
2022/06/03 03:34:11;;;;;;;3.20;1.05;;;;;;;23.16;49.59;100218.75;5029934;28;20044;-77
2022/06/03 03:37:12;;;;;;;3.45;0.90;;;;;;;23.16;49.87;100213.47;5070458;28;20052;-78
2022/06/03 03:40:07;;;;;;;2.58;1.25;;;;;;;23.16;51.12;100212.59;5061258;28;20075;-77
2022/06/03 03:43:10;;;;;;;2.55;0.95;;;;;;;23.15;49.46;100210.88;5067637;28;20059;-78
2022/06/03 03:46:19;;;;;;;2.83;1.02;;;;;;;23.14;50.34;100207.38;5059605;28;20764;-78
2022/06/03 03:49:19;;;;;;;2.22;1.08;;;;;;;23.12;49.23;100206.53;5063676;28;20087;-78
2022/06/03 03:52:23;;;;;;;2.08;1.13;;;;;;;23.11;49.47;100204.84;5042745;28;20043;-77
2022/06/03 03:55:24;;;;;;;1.60;1.15;;;;;;;23.08;49.26;100202.28;5046320;28;20041;-78
2022/06/03 03:58:31;;;;;;;2.72;1.20;;;;;;;23.04;48.47;100208.53;5060353;28;20526;-77
2022/06/03 04:01:43;;;;;;;2.35;1.08;;;;;;;23.00;48.63;100204.31;5051903;28;20053;-77
2022/06/03 04:04:53;;;;;;;2.72;1.00;;;;;;;22.94;49.89;100201.81;4994429;28;20050;-76
2022/06/03 04:08:01;;;;;;;4.15;1.10;;;;;;;22.89;50.31;100209.00;5055012;28;20059;-76
2022/06/03 04:11:01;;;;;;;2.65;1.15;;;;;;;22.80;53.90;100204.84;5062459;28;20071;-79
2022/06/03 04:14:16;;;;;;;4.68;1.20;;;;;;;22.67;55.94;100204.34;5056143;28;20054;-78
2022/06/03 04:17:20;;;;;;;3.08;1.05;;;;;;;22.53;52.42;100206.53;5053319;28;20071;-81
2022/06/03 04:20:12;;;;;;;2.70;1.63;;;;;;;22.41;55.45;100212.16;5060738;28;20104;-80
2022/06/03 04:23:14;;;;;;;1.50;1.13;;;;;;;22.27;54.71;100199.34;5058879;28;20502;-81
2022/06/03 04:26:23;;;;;;;2.40;1.27;;;;;;;22.14;53.37;100204.06;5063190;28;20056;-78
2022/06/03 04:29:34;;;;;;;2.67;1.20;;;;;;;22.10;53.65;100207.66;5058973;28;20136;-79
2022/06/03 04:32:50;;;;;;;4.60;1.38;;;;;;;22.08;55.50;100215.63;5054317;28;20044;-79
2022/06/03 04:36:02;;;;;;;2.92;1.20;;;;;;;21.97;53.23;100217.69;5055632;28;20106;-80
2022/06/03 04:39:03;;;;;;;3.63;1.23;;;;;;;21.90;56.33;100222.25;4999246;28;20170;-79
2022/06/03 04:42:04;;;;;;;3.03;1.30;;;;;;;21.77;54.75;100226.09;5041912;28;20044;-78
2022/06/03 04:45:10;;;;;;;1.85;1.13;;;;;;;21.66;61.42;100230.75;5044591;28;20128;-77
2022/06/03 04:48:17;;;;;;;1.88;1.20;;;;;;;21.52;60.68;100229.31;5036105;28;20049;-77
2022/06/03 04:51:23;;;;;;;2.67;1.17;;;;;;;21.35;56.71;100223.56;5039750;28;20487;-77
2022/06/03 04:54:26;;;;;;;1.98;1.10;;;;;;;21.22;58.57;100232.66;5030877;28;20056;-77
2022/06/03 04:57:35;;;;;;;4.97;1.08;;;;;;;21.11;61.10;100239.00;5042964;28;20060;-78
2022/06/03 05:00:21;;;;;;;5.05;1.50;;;;;;;20.99;58.88;100231.38;5040164;28;20049;-80
2022/06/03 05:03:28;;;;;;;3.17;1.75;;;;;;;20.88;59.39;100239.50;5046039;28;20538;-78
2022/06/03 05:06:45;;;;;;;5.03;1.92;;;;;;;20.82;59.94;100233.50;5044882;28;20052;-77
2022/06/03 05:09:57;;;;;;;5.50;1.70;;;;;;;20.81;60.59;100242.28;5048910;28;20045;-77
2022/06/03 05:13:01;;;;;;;3.22;1.63;;;;;;;20.82;62.63;100244.00;5037892;28;20498;-76
2022/06/03 05:16:10;;;;;;;7.10;1.60;;;;;;;20.75;65.07;100245.03;5048915;28;20514;-77
2022/06/03 05:19:06;;;;;;;5.05;2.00;;;;;;;20.55;65.44;100241.03;5035468;28;20055;-77
2022/06/03 05:22:19;;;;;;;4.93;1.77;;;;;;;20.47;66.49;100243.78;5038933;28;20148;-77
2022/06/03 05:25:16;;;;;;;4.25;1.90;;;;;;;20.51;68.89;100244.63;5013476;28;20490;-79
2022/06/03 05:28:24;;;;;;;2.70;1.42;;;;;;;20.49;66.34;100247.25;5041415;28;20137;-79
2022/06/03 05:31:28;;;;;;;3.05;1.90;;;;;;;20.33;67.29;100252.84;5039595;28;20049;-80
2022/06/03 05:34:39;;;;;;;2.67;1.63;;;;;;;20.10;66.30;100254.13;5047258;28;20431;-80
2022/06/03 05:37:50;;;;;;;4.03;1.77;;;;;;;19.92;65.58;100259.69;5047944;28;20069;-80
2022/06/03 05:40:39;;;;;;;2.05;1.38;;;;;;;19.78;64.05;100258.16;5066853;28;20411;-80
2022/06/03 05:43:54;;;;;;;3.70;1.80;;;;;;;19.75;65.50;100258.22;5065334;28;20399;-79
2022/06/03 05:46:37;;;;;;;7.80;1.98;;;;;;;19.79;69.48;100259.03;5065241;28;20083;-79
2022/06/03 05:49:28;;;;;;;3.85;1.55;;;;;;;19.79;69.12;100254.66;5058842;28;20127;-79
2022/06/03 05:52:16;;;;;;;5.32;1.90;;;;;;;19.78;67.93;100252.91;5062244;28;20049;-79
2022/06/03 05:55:00;;;;;;;4.03;1.70;;;;;;;19.66;65.83;100255.72;5059926;28;20076;-79
2022/06/03 05:57:37;;;;;;;2.80;1.40;;;;;;;19.53;64.34;100260.28;5063612;28;20049;-80
2022/06/03 06:00:23;;;;;;;2.08;1.20;;;;;;;19.42;63.05;100249.97;5067063;28;20091;-80
2022/06/03 06:03:04;;;;;;;3.70;1.20;;;;;;;19.37;61.57;100251.75;5070336;28;20052;-79
2022/06/03 06:05:48;;;;;;;3.50;1.02;;;;;;;19.35;63.00;100253.53;5067962;28;20060;-79
2022/06/03 06:08:26;;;;;;;4.20;1.50;;;;;;;19.31;64.08;100259.75;5068398;28;20051;-79
2022/06/03 06:11:04;;;;;;;4.22;2.15;;;;;;;19.32;66.02;100256.22;5066564;28;20405;-79
2022/06/03 06:14:07;;;;;;;4.82;1.30;;;;;;;19.34;66.53;100253.59;5065879;28;20049;-79
2022/06/03 06:16:40;;;;;;;2.70;1.42;;;;;;;19.27;65.73;100255.41;5059540;28;20479;-79
2022/06/03 06:19:14;;;;;;;1.30;0.80;;;;;;;19.18;62.06;100258.19;5067033;28;20128;-79
2022/06/03 06:22:03;;;;;;;2.25;1.00;;;;;;;19.10;60.97;100257.41;5062325;28;20062;-79
2022/06/03 06:24:56;;;;;;;2.72;0.98;;;;;;;19.10;62.32;100260.03;5065328;28;20041;-79
2022/06/03 06:27:59;;;;;;;2.92;1.40;;;;;;;19.14;65.18;100261.72;5063359;28;20037;-79
2022/06/03 06:31:04;;;;;;;2.35;1.10;;;;;;;19.13;63.90;100262.63;5066138;28;20075;-80
2022/06/03 06:34:06;;;;;;;3.40;1.20;;;;;;;19.09;61.76;100267.03;5066140;28;20483;-79
2022/06/03 06:37:08;;;;;;;1.70;1.20;;;;;;;18.99;62.22;100261.03;5059493;28;20468;-80
2022/06/03 06:39:57;;;;;;;3.05;1.23;;;;;;;19.09;65.91;100271.41;5057163;28;20059;-80
2022/06/03 06:42:45;;;;;;;1.35;0.90;;;;;;;19.09;68.31;100271.41;5055771;28;20183;-80
2022/06/03 06:45:32;;;;;;;2.65;1.20;;;;;;;19.07;65.97;100273.19;5064889;28;20045;-79
2022/06/03 06:48:11;;;;;;;4.95;1.50;;;;;;;19.00;68.59;100267.16;5056998;28;20040;-80
2022/06/03 06:50:48;;;;;;;3.15;1.20;;;;;;;18.93;69.23;100271.59;5061849;28;20077;-78
2022/06/03 06:53:24;;;;;;;4.53;0.95;;;;;;;18.82;69.16;100276.09;5068030;28;20486;-80
2022/06/03 06:56:04;;;;;;;3.42;1.00;;;;;;;18.68;67.66;100275.38;5062033;28;20057;-81
2022/06/03 06:58:44;;;;;;;4.00;1.00;;;;;;;18.55;65.96;100280.72;5071891;28;20041;-80
2022/06/03 07:01:23;;;;;;;2.97;0.70;;;;;;;18.49;65.00;100278.19;5067778;28;20044;-80
2022/06/03 07:04:01;;;;;;;3.47;1.10;;;;;;;18.45;66.64;100268.63;5054301;28;20053;-80
2022/06/03 07:06:41;;;;;;;2.85;0.73;;;;;;;18.36;63.88;100274.81;5059346;28;20055;-80
2022/06/03 07:09:47;;;;;;;3.72;0.95;;;;;;;18.33;66.23;100282.72;5071341;28;20138;-79
2022/06/03 07:12:19;;;;;;;4.40;1.00;;;;;;;18.34;66.19;100278.34;5053761;28;20547;-79
2022/06/03 07:15:01;;;;;;;1.67;0.93;;;;;;;18.34;67.36;100280.97;5059354;28;20102;-80
2022/06/03 07:20:37;;;;;;;2.45;0.80;;;;;;;18.19;65.84;100288.09;5064191;28;20109;-79
2022/06/03 07:23:12;;;;;;;1.65;1.02;;;;;;;18.13;64.71;100290.75;5066877;28;20063;-80
2022/06/03 07:25:46;;;;;;;3.38;0.93;;;;;;;18.12;64.19;100299.50;5067629;28;20048;-80
2022/06/03 07:28:29;;;;;;;3.35;1.20;;;;;;;18.07;62.69;100303.91;5069780;28;20119;-80
2022/06/03 07:31:06;;;;;;;2.50;1.40;;;;;;;18.03;63.90;100304.81;5068855;28;20045;-80
2022/06/03 07:33:55;;;;;;;2.65;1.58;;;;;;;18.01;63.64;100303.97;5059830;28;20048;-80
2022/06/03 07:36:34;;;;;;;3.90;1.40;;;;;;;18.00;62.86;100303.09;5067947;28;20044;-80
2022/06/03 07:39:28;;;;;;;2.83;1.27;;;;;;;18.05;67.16;100304.78;5064234;28;20053;-79
2022/06/03 07:42:06;;;;;;;2.22;1.00;;;;;;;18.10;68.20;100306.50;5049284;28;20041;-80
2022/06/03 07:44:46;;;;;;;2.40;1.00;;;;;;;18.12;68.40;100307.38;5049598;28;20041;-80
2022/06/03 07:47:18;;;;;;;3.38;1.30;;;;;;;18.13;67.67;100314.31;5040457;28;20491;-80
2022/06/03 07:49:55;;;;;;;6.40;1.40;;;;;;;18.15;65.87;100309.94;5051730;28;20548;-80
2022/06/03 07:52:33;;;;;;;2.20;1.23;;;;;;;18.14;64.68;100310.84;5045388;28;20040;-80
2022/06/03 07:55:09;;;;;;;2.28;0.93;;;;;;;18.11;64.87;100308.22;5046232;28;20033;-80
2022/06/03 07:57:37;;;;;;;3.15;1.42;;;;;;;18.10;64.93;100303.88;5044590;28;20049;-81
2022/06/03 08:00:15;;;;;;;3.35;1.20;;;;;;;18.11;64.74;100303.00;5046066;28;20270;-80
2022/06/03 08:02:44;;;;;;;3.75;1.08;;;;;;;18.12;64.75;100296.00;5043111;28;20178;-80
2022/06/03 08:05:14;;;;;;;1.73;0.93;;;;;;;18.11;64.12;100297.75;5039773;28;20042;-80
2022/06/03 08:13:22;;;;;;;1.13;0.70;;;;;;;18.01;65.08;100309.19;5049409;28;20056;-79
2022/06/03 08:15:56;;;;;;;3.00;0.98;;;;;;;17.98;65.24;100310.09;5038068;28;20056;-80
2022/06/03 08:18:28;;;;;;;5.03;1.00;;;;;;;17.95;65.84;100311.84;5044916;28;20475;-78
2022/06/03 08:21:02;;;;;;;1.42;0.85;;;;;;;17.90;65.79;100316.28;5045259;28;20049;-79
2022/06/03 08:23:33;;;;;;;1.30;0.75;;;;;;;17.88;66.48;100318.03;5046436;28;20041;-80
2022/06/03 08:26:05;;;;;;;3.40;1.00;;;;;;;17.88;65.95;100310.19;5053747;28;20155;-80
2022/06/03 08:28:37;;;;;;;2.45;1.13;;;;;;;17.90;67.51;100306.66;5049929;28;20494;-79
2022/06/03 08:31:08;;;;;;;1.88;0.90;;;;;;;17.92;68.68;100304.91;5046326;28;20049;-79
2022/06/03 08:33:43;;;;;;;3.30;1.00;;;;;;;17.95;67.40;100298.78;5046712;28;20403;-80
2022/06/03 08:36:15;;;;;;;1.88;0.80;;;;;;;17.92;66.03;100289.19;5049444;28;20135;-81
2022/06/03 08:38:47;;;;;;;1.50;0.93;;;;;;;17.93;65.58;100284.81;5054668;28;20048;-81
2022/06/03 08:41:35;;;;;;;2.38;1.15;;;;;;;17.90;65.81;100282.25;5053783;28;20505;-80
2022/06/03 08:44:23;;;;;;;1.30;1.00;;;;;;;17.90;65.20;100282.25;5057660;28;20045;-80
2022/06/03 08:46:58;;;;;;;2.53;1.17;;;;;;;17.88;65.20;100276.16;5032876;28;20794;-80
2022/06/03 08:49:29;;;;;;;1.73;0.98;;;;;;;17.86;65.43;100277.91;5047477;28;20510;-79
2022/06/03 08:52:05;;;;;;;2.78;1.00;;;;;;;17.83;65.83;100265.72;5052599;28;20049;-81
2022/06/03 08:54:46;;;;;;;1.73;0.95;;;;;;;17.82;66.96;100268.34;5040248;28;20045;-81
2022/06/03 08:57:22;;;;;;;2.05;0.75;;;;;;;17.78;66.22;100273.56;5051216;28;20041;-81
2022/06/03 08:59:58;;;;;;;1.55;0.98;;;;;;;17.76;66.19;100272.72;5032178;28;20057;-81
2022/06/03 09:02:37;;;;;;;2.08;0.70;;;;;;;17.73;66.57;100274.47;5038530;28;20057;-79
2022/06/03 09:05:12;;;;;;;2.15;0.75;;;;;;;17.70;66.58;100270.13;5034255;28;20053;-80
2022/06/03 09:07:48;;;;;;;1.80;0.77;;;;;;;17.68;66.70;100269.28;5049842;28;20037;-80
2022/06/03 09:10:24;;;;;;;1.48;0.70;;;;;;;17.65;66.97;100263.22;5040803;28;20511;-80
2022/06/03 09:13:00;;;;;;;1.25;0.80;;;;;;;17.63;66.83;100271.06;5031000;28;20419;-80
2022/06/03 09:15:35;;;;;;;0.85;0.45;;;;;;;17.54;67.34;100253.69;5037645;28;20060;-81
2022/06/03 09:18:14;;;;;;;1.38;0.57;;;;;;;17.57;67.13;100266.75;5040809;28;20054;-79
2022/06/03 09:20:47;;;;;;;3.15;0.75;;;;;;;17.54;67.22;100265.91;5030968;28;20042;-81
2022/06/03 09:23:20;;;;;;;2.25;0.60;;;;;;;17.52;68.07;100268.53;5034261;28;20057;-81
2022/06/03 09:25:48;;;;;;;;;;;;;;;17.50;68.16;100269.41;5046664;28;20048;-81
2022/06/03 09:28:31;;;;;;;0.60;0.50;;;;;;;17.43;67.62;100267.72;5046404;28;19972;-81
2022/06/03 09:31:02;;;;;;;2.55;0.68;;;;;;;17.40;69.49;100268.59;5046241;28;20057;-80
2022/06/03 09:33:33;;;;;;;1.38;0.55;;;;;;;17.38;70.35;100267.75;5034390;28;20564;-80
2022/06/03 09:36:06;;;;;;;0.60;0.50;;;;;;;17.32;71.45;100268.66;5047740;28;20052;-81
2022/06/03 09:38:43;;;;;;;1.23;0.60;;;;;;;17.24;69.96;100269.56;5057188;28;20095;-80
2022/06/03 09:41:14;;;;;;;2.05;0.95;;;;;;;17.19;69.50;100274.84;5063915;28;20561;-80
2022/06/03 09:43:48;;;;;;;3.05;1.10;;;;;;;17.16;69.42;100274.84;5062350;28;20053;-79
2022/06/03 09:46:18;;;;;;;4.00;1.90;;;;;;;17.12;68.66;100279.22;5058342;28;20410;-81
2022/06/03 09:48:49;;;;;;;3.67;1.30;;;;;;;17.12;68.69;100283.59;5068710;28;20486;-81
2022/06/03 09:51:20;;;;;;;3.47;1.25;;;;;;;17.10;69.16;100283.59;5052395;28;20044;-78
2022/06/03 09:53:49;;;;;;;1.60;0.80;;;;;;;17.07;69.16;100283.59;5052636;28;20049;-79
2022/06/03 09:56:23;;;;;;;2.33;0.70;;;;;;;17.08;68.92;100282.72;5057576;28;20115;-78
2022/06/03 09:58:57;;;;;;;5.95;0.80;;;;;;;17.02;70.07;100289.72;5065339;28;20441;-80
2022/06/03 10:01:26;;;;;;;2.58;0.70;;;;;;;16.94;70.41;100279.31;5071816;28;20036;-79
2022/06/03 10:04:00;;;;;;;0.70;0.60;;;;;;;16.92;70.35;100279.31;5064002;28;20052;-80
2022/06/03 10:06:46;;;;;;;0.90;0.75;;;;;;;16.89;70.11;100284.56;5067382;28;20119;-81
2022/06/03 10:15:37;;;;;;;0.70;0.50;;;;;;;16.81;70.89;100285.44;5070924;28;20055;-80
2022/06/03 10:17:38;;;;;;;1.08;0.70;;;;;;;16.78;71.44;100282.81;5063341;28;20061;-80
2022/06/03 10:20:10;;;;;;;1.50;0.95;;;;;;;16.76;71.75;100288.03;5069562;28;20553;-79
2022/06/03 10:22:40;;;;;;;1.73;0.75;;;;;;;16.72;73.82;100289.81;5071861;28;20063;-80
2022/06/03 10:25:11;;;;;;;0.95;0.60;;;;;;;16.64;71.71;100288.09;5078185;28;20052;-79
2022/06/03 10:27:40;;;;;;;3.95;0.80;;;;;;;16.63;71.16;100291.56;5072237;28;20058;-80
2022/06/03 10:30:10;;;;;;;1.65;0.57;;;;;;;16.63;70.65;100284.63;5067894;28;20052;-78
2022/06/03 10:32:39;;;;;;;3.13;0.73;;;;;;;16.64;70.00;100285.47;5071288;28;20131;-79
2022/06/03 10:35:16;;;;;;;1.23;0.82;;;;;;;16.64;70.13;100296.78;5072016;28;20084;-80
2022/06/03 10:37:52;;;;;;;1.35;0.90;;;;;;;16.61;70.87;100298.56;5069010;28;20118;-79
2022/06/03 10:40:24;;;;;;;1.50;0.90;;;;;;;16.59;70.93;100293.34;5067741;28;20053;-80
2022/06/03 10:42:56;;;;;;;1.65;0.65;;;;;;;16.58;70.83;100295.94;5070573;28;20045;-79
2022/06/03 10:45:28;;;;;;;0.80;0.73;;;;;;;16.58;72.94;100295.94;5071273;28;20605;-80
2022/06/03 10:47:56;;;;;;;;;;;;;;;16.57;74.01;100283.75;5057764;28;20049;-79
2022/06/03 10:50:34;;;;;;;1.88;0.80;;;;;;;16.53;73.01;100273.31;5058248;28;19932;-79
2022/06/03 11:01:41;;;;;;;1.20;0.70;;;;;;;16.36;72.06;100280.31;5057172;28;20048;-80
2022/06/03 11:04:25;;;;;;;2.72;0.65;;;;;;;16.36;72.00;100288.16;5069956;28;20055;-79
2022/06/03 11:07:02;;;;;;;2.47;0.80;;;;;;;16.36;72.48;100288.16;5063059;28;20504;-81
2022/06/03 11:09:31;;;;;;;2.08;1.02;;;;;;;16.36;71.32;100301.22;5055569;28;20049;-81
2022/06/03 11:12:02;;;;;;;1.13;0.82;;;;;;;16.33;71.40;100296.88;5056136;28;20056;-81
2022/06/03 11:14:39;;;;;;;2.03;0.90;;;;;;;16.29;71.82;100299.47;5056450;28;20053;-79
2022/06/03 11:17:12;;;;;;;2.28;0.90;;;;;;;16.29;72.55;100286.44;5067642;28;20048;-80
2022/06/03 11:19:44;;;;;;;;;;;;;;;16.29;73.74;100289.03;5071031;28;20399;-80
2022/06/03 11:22:28;;;;;;;1.58;0.80;;;;;;;16.28;73.52;100287.28;5069979;28;19921;-80
2022/06/03 11:25:03;;;;;;;1.52;0.77;;;;;;;16.22;73.65;100288.19;5059811;28;20064;-79
2022/06/03 11:27:40;;;;;;;4.15;0.88;;;;;;;16.19;74.59;100297.75;5062382;28;20044;-80
2022/06/03 11:30:15;;;;;;;1.83;0.80;;;;;;;16.19;74.62;100302.97;5065416;28;20043;-80
2022/06/03 11:32:49;;;;;;;2.17;1.15;;;;;;;16.21;73.38;100290.78;5069390;28;20045;-80
2022/06/03 11:35:25;;;;;;;4.07;0.88;;;;;;;16.24;74.38;100290.75;5067419;28;20052;-80
2022/06/03 11:38:00;;;;;;;3.50;0.95;;;;;;;16.24;75.05;100288.16;5065170;28;20055;-80
2022/06/03 11:40:34;;;;;;;2.05;0.90;;;;;;;16.23;74.22;100289.03;5066471;28;20482;-80
2022/06/03 11:43:08;;;;;;;1.77;0.90;;;;;;;16.22;74.87;100297.75;5059719;28;20127;-80
2022/06/03 11:45:41;;;;;;;1.92;1.00;;;;;;;16.21;74.19;100277.72;5063632;28;20045;-79
2022/06/03 11:48:18;;;;;;;4.38;0.98;;;;;;;16.21;75.16;100285.56;5070735;28;20119;-80
2022/06/03 11:50:47;;;;;;;4.85;1.13;;;;;;;16.22;74.89;100287.31;5067546;28;20048;-81
2022/06/03 11:53:20;;;;;;;1.50;0.77;;;;;;;16.19;74.89;100289.91;5071033;28;20497;-81
2022/06/03 11:55:49;;;;;;;3.40;1.17;;;;;;;16.15;74.24;100290.78;5068407;28;20045;-79
2022/06/03 11:58:24;;;;;;;2.15;1.00;;;;;;;16.14;74.58;100295.13;5070085;28;20044;-80
2022/06/03 12:00:57;;;;;;;1.98;1.10;;;;;;;16.14;74.59;100302.97;5069291;28;20532;-79
2022/06/03 12:03:38;;;;;;;3.95;1.52;;;;;;;16.10;75.06;100299.50;5069676;28;20079;-80
2022/06/03 12:06:13;;;;;;;2.28;1.02;;;;;;;16.04;75.45;100286.44;5058570;28;20076;-80
2022/06/03 12:08:54;;;;;;;5.30;1.48;;;;;;;16.10;75.23;100294.28;5069910;28;20457;-79
2022/06/03 12:14:29;;;;;;;;;;;;;;;16.05;75.22;100296.00;5054230;28;20846;-81
2022/06/03 12:17:01;;;;;;;4.23;1.70;;;;;;;16.02;75.69;100301.22;5065316;28;20393;-80
2022/06/03 12:19:44;;;;;;;3.03;1.45;;;;;;;16.00;76.36;100302.97;5054123;28;20293;-81
2022/06/03 12:22:38;;;;;;;3.67;1.20;;;;;;;16.01;75.65;100301.22;5069510;28;20041;-81
2022/06/03 12:25:39;;;;;;;2.13;1.10;;;;;;;16.01;76.90;100296.91;5060945;28;20045;-81
2022/06/03 12:28:17;;;;;;;6.75;1.25;;;;;;;16.02;76.61;100296.00;5063079;28;20522;-80
2022/06/03 12:30:50;;;;;;;1.00;0.60;;;;;;;16.03;76.24;100289.03;5058049;28;20064;-80
2022/06/03 12:33:26;;;;;;;1.35;0.70;;;;;;;16.04;76.68;100289.06;5063389;28;20486;-80
2022/06/03 12:36:04;;;;;;;1.95;0.77;;;;;;;16.03;76.33;100289.91;5068554;28;20060;-79
2022/06/03 12:38:43;;;;;;;2.95;1.15;;;;;;;16.02;77.92;100284.72;5068125;28;20041;-78
2022/06/03 12:41:33;;;;;;;2.95;1.20;;;;;;;16.06;80.60;100276.88;5057259;28;20506;-77
2022/06/03 12:44:02;;;;;;;2.35;1.13;;;;;;;16.04;80.67;100268.19;5066710;28;20102;-78
2022/06/03 12:46:42;;;;;;;3.90;1.33;;;;;;;16.07;80.50;100289.03;5061572;28;20458;-78
2022/06/03 12:49:50;;;;;;;3.65;1.38;;;;;;;16.03;80.40;100292.50;5065506;28;20056;-79
2022/06/03 12:52:44;;;;;;;2.85;1.13;;;;;;;15.98;82.58;100291.66;5062810;28;20048;-78
2022/06/03 12:55:23;;;;;;;4.80;1.30;;;;;;;15.98;83.74;100291.66;5059688;28;20501;-78
2022/06/03 12:57:57;;;;;;;2.03;1.02;;;;;;;15.99;84.45;100288.19;5066522;28;20052;-77
2022/06/03 13:00:32;;;;;;;2.50;1.30;;;;;;;16.00;84.39;100282.09;5069738;28;20048;-77
2022/06/03 13:03:03;;;;;;;2.67;1.15;;;;;;;15.97;83.92;100266.44;5066813;28;20078;-78
2022/06/03 13:05:41;;;;;;;4.05;1.00;;;;;;;16.04;84.71;100277.75;5066368;28;20060;-78
2022/06/03 13:08:12;;;;;;;1.95;1.13;;;;;;;16.02;84.11;100269.91;5066410;28;20110;-77
2022/06/03 13:10:58;;;;;;;2.58;0.85;;;;;;;16.02;84.97;100284.72;5064973;28;20048;-78
2022/06/03 13:14:08;;;;;;;2.53;0.85;;;;;;;15.93;85.56;100292.53;5066795;28;20045;-78
2022/06/03 13:16:49;;;;;;;2.38;0.70;;;;;;;15.87;87.32;100290.78;5059397;28;20087;-78
2022/06/03 13:20:01;;;;;;;1.00;0.63;;;;;;;15.85;87.25;100287.28;5068424;28;20044;-78
2022/06/03 13:22:57;;;;;;;1.23;0.70;;;;;;;15.86;87.88;100284.69;5061939;28;20079;-78
2022/06/03 13:25:35;;;;;;;2.60;0.98;;;;;;;15.87;89.30;100277.75;5064529;28;20441;-78
2022/06/03 13:28:14;;;;;;;1.52;0.82;;;;;;;15.88;90.08;100277.75;5058165;28;20650;-78
2022/06/03 13:30:44;;;;;;;1.95;1.15;;;;;;;15.87;89.34;100277.75;5062030;28;20487;-78